sensor_id;sensor_type;location;lat;lon;timestamp;P1;durP1;ratioP1;P2;durP2;ratioP2
3099;SDS011;1560;52.746;13.474;2023-07-31T00:02:27;4.60;;;2.53;;
3099;SDS011;1560;52.746;13.474;2023-07-31T00:04:56;6.17;;;3.00;;
3099;SDS011;1560;52.746;13.474;2023-07-31T00:07:25;4.53;;;2.60;;
3099;SDS011;1560;52.746;13.474;2023-07-31T00:12:29;9.40;;;3.13;;
3099;SDS011;1560;52.746;13.474;2023-07-31T00:14:58;4.60;;;2.10;;
3099;SDS011;1560;52.746;13.474;2023-07-31T00:17:27;6.33;;;2.27;;
3099;SDS011;1560;52.746;13.474;2023-07-31T00:19:56;7.30;;;2.87;;
3099;SDS011;1560;52.746;13.474;2023-07-31T00:22:24;3.90;;;2.57;;
3099;SDS011;1560;52.746;13.474;2023-07-31T00:24:53;6.30;;;1.97;;
3099;SDS011;1560;52.746;13.474;2023-07-31T00:27:30;4.80;;;2.07;;
3099;SDS011;1560;52.746;13.474;2023-07-31T00:32:35;2.23;;;1.70;;
3099;SDS011;1560;52.746;13.474;2023-07-31T00:35:05;3.77;;;2.27;;
3099;SDS011;1560;52.746;13.474;2023-07-31T00:37:34;3.40;;;1.90;;
3099;SDS011;1560;52.746;13.474;2023-07-31T00:40:03;2.67;;;2.20;;
3099;SDS011;1560;52.746;13.474;2023-07-31T00:42:33;3.30;;;2.10;;
3099;SDS011;1560;52.746;13.474;2023-07-31T00:45:10;2.63;;;1.83;;
3099;SDS011;1560;52.746;13.474;2023-07-31T00:47:39;2.80;;;2.10;;
3099;SDS011;1560;52.746;13.474;2023-07-31T00:50:08;3.70;;;2.60;;
3099;SDS011;1560;52.746;13.474;2023-07-31T00:52:46;4.23;;;1.83;;
3099;SDS011;1560;52.746;13.474;2023-07-31T00:55:15;3.50;;;2.27;;
3099;SDS011;1560;52.746;13.474;2023-07-31T00:57:45;4.27;;;2.30;;
3099;SDS011;1560;52.746;13.474;2023-07-31T01:00:13;5.43;;;2.20;;
3099;SDS011;1560;52.746;13.474;2023-07-31T01:02:42;4.53;;;2.90;;
3099;SDS011;1560;52.746;13.474;2023-07-31T01:05:20;3.53;;;2.57;;
3099;SDS011;1560;52.746;13.474;2023-07-31T01:07:59;7.90;;;3.07;;
3099;SDS011;1560;52.746;13.474;2023-07-31T01:10:42;3.37;;;2.10;;
3099;SDS011;1560;52.746;13.474;2023-07-31T01:13:11;3.80;;;2.37;;
3099;SDS011;1560;52.746;13.474;2023-07-31T01:15:40;5.03;;;2.30;;
3099;SDS011;1560;52.746;13.474;2023-07-31T01:18:08;3.37;;;1.63;;
3099;SDS011;1560;52.746;13.474;2023-07-31T01:20:46;3.60;;;2.40;;
3099;SDS011;1560;52.746;13.474;2023-07-31T01:23:26;2.50;;;1.73;;
3099;SDS011;1560;52.746;13.474;2023-07-31T01:26:20;5.00;;;2.40;;
3099;SDS011;1560;52.746;13.474;2023-07-31T01:28:55;4.07;;;2.40;;
3099;SDS011;1560;52.746;13.474;2023-07-31T01:31:30;5.70;;;2.20;;
3099;SDS011;1560;52.746;13.474;2023-07-31T01:34:00;3.83;;;2.40;;
3099;SDS011;1560;52.746;13.474;2023-07-31T01:36:30;3.70;;;2.10;;
3099;SDS011;1560;52.746;13.474;2023-07-31T01:38:59;4.90;;;2.30;;
3099;SDS011;1560;52.746;13.474;2023-07-31T01:41:28;5.50;;;2.53;;
3099;SDS011;1560;52.746;13.474;2023-07-31T01:43:57;3.30;;;2.03;;
3099;SDS011;1560;52.746;13.474;2023-07-31T01:46:25;2.57;;;2.00;;
3099;SDS011;1560;52.746;13.474;2023-07-31T01:48:54;3.00;;;2.10;;
3099;SDS011;1560;52.746;13.474;2023-07-31T01:51:31;6.57;;;2.40;;
3099;SDS011;1560;52.746;13.474;2023-07-31T01:54:00;4.93;;;3.00;;
3099;SDS011;1560;52.746;13.474;2023-07-31T01:56:29;3.30;;;2.50;;
3099;SDS011;1560;52.746;13.474;2023-07-31T01:58:58;5.57;;;2.47;;
3099;SDS011;1560;52.746;13.474;2023-07-31T02:04:03;2.63;;;2.00;;
3099;SDS011;1560;52.746;13.474;2023-07-31T02:06:32;3.43;;;2.43;;
3099;SDS011;1560;52.746;13.474;2023-07-31T02:09:00;3.97;;;2.20;;
3099;SDS011;1560;52.746;13.474;2023-07-31T02:11:38;3.00;;;2.00;;
3099;SDS011;1560;52.746;13.474;2023-07-31T02:14:07;10.73;;;3.00;;
3099;SDS011;1560;52.746;13.474;2023-07-31T02:16:35;3.10;;;2.20;;
3099;SDS011;1560;52.746;13.474;2023-07-31T02:19:04;3.23;;;1.87;;
3099;SDS011;1560;52.746;13.474;2023-07-31T02:21:33;6.20;;;2.13;;
3099;SDS011;1560;52.746;13.474;2023-07-31T02:24:01;6.37;;;2.80;;
3099;SDS011;1560;52.746;13.474;2023-07-31T02:26:39;4.37;;;2.33;;
3099;SDS011;1560;52.746;13.474;2023-07-31T02:31:44;3.00;;;2.23;;
3099;SDS011;1560;52.746;13.474;2023-07-31T02:34:13;5.10;;;2.47;;
3099;SDS011;1560;52.746;13.474;2023-07-31T02:36:41;3.50;;;2.10;;
3099;SDS011;1560;52.746;13.474;2023-07-31T02:41:46;3.77;;;2.17;;
3099;SDS011;1560;52.746;13.474;2023-07-31T02:44:15;4.17;;;2.83;;
3099;SDS011;1560;52.746;13.474;2023-07-31T02:46:43;11.50;;;2.80;;
3099;SDS011;1560;52.746;13.474;2023-07-31T02:49:12;4.03;;;2.10;;
3099;SDS011;1560;52.746;13.474;2023-07-31T02:51:41;3.60;;;3.07;;
3099;SDS011;1560;52.746;13.474;2023-07-31T02:54:09;4.60;;;2.40;;
3099;SDS011;1560;52.746;13.474;2023-07-31T02:56:38;3.40;;;2.30;;
3099;SDS011;1560;52.746;13.474;2023-07-31T02:59:06;8.00;;;3.17;;
3099;SDS011;1560;52.746;13.474;2023-07-31T03:01:35;3.57;;;2.87;;
3099;SDS011;1560;52.746;13.474;2023-07-31T03:04:04;7.57;;;3.07;;
3099;SDS011;1560;52.746;13.474;2023-07-31T03:06:34;4.20;;;2.60;;
3099;SDS011;1560;52.746;13.474;2023-07-31T03:09:03;5.70;;;3.00;;
3099;SDS011;1560;52.746;13.474;2023-07-31T03:11:40;3.97;;;2.10;;
3099;SDS011;1560;52.746;13.474;2023-07-31T03:14:08;4.20;;;2.67;;
3099;SDS011;1560;52.746;13.474;2023-07-31T03:16:37;3.50;;;2.30;;
3099;SDS011;1560;52.746;13.474;2023-07-31T03:19:06;5.13;;;2.40;;
3099;SDS011;1560;52.746;13.474;2023-07-31T03:21:34;3.90;;;2.40;;
3099;SDS011;1560;52.746;13.474;2023-07-31T03:24:04;5.10;;;2.23;;
3099;SDS011;1560;52.746;13.474;2023-07-31T03:26:41;3.97;;;2.80;;
3099;SDS011;1560;52.746;13.474;2023-07-31T03:29:10;4.53;;;2.47;;
3099;SDS011;1560;52.746;13.474;2023-07-31T03:31:38;2.87;;;2.50;;
3099;SDS011;1560;52.746;13.474;2023-07-31T03:34:07;7.50;;;3.07;;
3099;SDS011;1560;52.746;13.474;2023-07-31T03:36:35;3.40;;;2.70;;
3099;SDS011;1560;52.746;13.474;2023-07-31T03:39:04;3.00;;;2.37;;
3099;SDS011;1560;52.746;13.474;2023-07-31T03:41:33;3.60;;;2.57;;
3099;SDS011;1560;52.746;13.474;2023-07-31T03:44:10;5.43;;;2.80;;
3099;SDS011;1560;52.746;13.474;2023-07-31T03:46:39;4.37;;;2.60;;
3099;SDS011;1560;52.746;13.474;2023-07-31T03:49:07;3.67;;;2.70;;
3099;SDS011;1560;52.746;13.474;2023-07-31T03:51:36;3.87;;;2.80;;
3099;SDS011;1560;52.746;13.474;2023-07-31T03:54:05;3.60;;;2.67;;
3099;SDS011;1560;52.746;13.474;2023-07-31T03:56:34;3.50;;;2.43;;
3099;SDS011;1560;52.746;13.474;2023-07-31T03:59:11;3.70;;;2.70;;
3099;SDS011;1560;52.746;13.474;2023-07-31T04:01:39;3.70;;;2.87;;
3099;SDS011;1560;52.746;13.474;2023-07-31T04:04:08;6.23;;;2.90;;
3099;SDS011;1560;52.746;13.474;2023-07-31T04:06:37;4.00;;;2.60;;
3099;SDS011;1560;52.746;13.474;2023-07-31T04:09:14;6.00;;;2.70;;
3099;SDS011;1560;52.746;13.474;2023-07-31T04:11:42;5.63;;;2.47;;
3099;SDS011;1560;52.746;13.474;2023-07-31T04:14:11;5.37;;;2.73;;
3099;SDS011;1560;52.746;13.474;2023-07-31T04:16:40;3.63;;;2.50;;
3099;SDS011;1560;52.746;13.474;2023-07-31T04:19:08;3.73;;;3.23;;
3099;SDS011;1560;52.746;13.474;2023-07-31T04:21:37;8.13;;;2.77;;
3099;SDS011;1560;52.746;13.474;2023-07-31T04:24:06;3.87;;;3.10;;
3099;SDS011;1560;52.746;13.474;2023-07-31T04:26:34;4.57;;;3.07;;
3099;SDS011;1560;52.746;13.474;2023-07-31T04:29:03;4.40;;;3.17;;
3099;SDS011;1560;52.746;13.474;2023-07-31T04:31:31;4.40;;;3.00;;
3099;SDS011;1560;52.746;13.474;2023-07-31T04:34:00;4.20;;;2.93;;
3099;SDS011;1560;52.746;13.474;2023-07-31T04:36:30;5.10;;;3.23;;
3099;SDS011;1560;52.746;13.474;2023-07-31T04:38:59;3.43;;;3.10;;
3099;SDS011;1560;52.746;13.474;2023-07-31T04:41:28;6.40;;;3.93;;
3099;SDS011;1560;52.746;13.474;2023-07-31T04:44:05;6.77;;;3.80;;
3099;SDS011;1560;52.746;13.474;2023-07-31T04:46:34;7.67;;;3.90;;
3099;SDS011;1560;52.746;13.474;2023-07-31T04:49:02;4.97;;;3.00;;
3099;SDS011;1560;52.746;13.474;2023-07-31T04:51:31;5.93;;;3.67;;
3099;SDS011;1560;52.746;13.474;2023-07-31T04:53:59;7.30;;;3.37;;
3099;SDS011;1560;52.746;13.474;2023-07-31T04:56:28;5.83;;;3.77;;
3099;SDS011;1560;52.746;13.474;2023-07-31T04:58:56;3.93;;;2.90;;
3099;SDS011;1560;52.746;13.474;2023-07-31T05:01:33;4.20;;;3.50;;
3099;SDS011;1560;52.746;13.474;2023-07-31T05:04:02;8.63;;;4.30;;
3099;SDS011;1560;52.746;13.474;2023-07-31T05:06:31;5.30;;;3.80;;
3099;SDS011;1560;52.746;13.474;2023-07-31T05:09:00;6.53;;;4.30;;
3099;SDS011;1560;52.746;13.474;2023-07-31T05:11:29;4.70;;;4.13;;
3099;SDS011;1560;52.746;13.474;2023-07-31T05:13:57;5.50;;;3.90;;
3099;SDS011;1560;52.746;13.474;2023-07-31T05:16:26;6.10;;;4.33;;
3099;SDS011;1560;52.746;13.474;2023-07-31T05:18:54;4.20;;;3.63;;
3099;SDS011;1560;52.746;13.474;2023-07-31T05:21:23;4.33;;;3.80;;
3099;SDS011;1560;52.746;13.474;2023-07-31T05:23:51;8.27;;;4.23;;
3099;SDS011;1560;52.746;13.474;2023-07-31T05:26:20;4.80;;;3.83;;
3099;SDS011;1560;52.746;13.474;2023-07-31T05:28:57;4.97;;;3.37;;
3099;SDS011;1560;52.746;13.474;2023-07-31T05:31:26;5.37;;;3.63;;
3099;SDS011;1560;52.746;13.474;2023-07-31T05:33:54;5.50;;;4.27;;
3099;SDS011;1560;52.746;13.474;2023-07-31T05:36:23;5.97;;;4.20;;
3099;SDS011;1560;52.746;13.474;2023-07-31T05:38:52;7.73;;;4.20;;
3099;SDS011;1560;52.746;13.474;2023-07-31T05:41:20;6.30;;;5.10;;
3099;SDS011;1560;52.746;13.474;2023-07-31T05:43:58;7.43;;;4.40;;
3099;SDS011;1560;52.746;13.474;2023-07-31T05:46:26;7.17;;;4.23;;
3099;SDS011;1560;52.746;13.474;2023-07-31T05:48:55;7.17;;;4.67;;
3099;SDS011;1560;52.746;13.474;2023-07-31T05:51:25;6.60;;;4.77;;
3099;SDS011;1560;52.746;13.474;2023-07-31T05:53:54;5.13;;;3.60;;
3099;SDS011;1560;52.746;13.474;2023-07-31T05:56:22;6.30;;;5.10;;
3099;SDS011;1560;52.746;13.474;2023-07-31T05:58:53;6.70;;;4.47;;
3099;SDS011;1560;52.746;13.474;2023-07-31T06:01:23;6.13;;;4.20;;
3099;SDS011;1560;52.746;13.474;2023-07-31T06:03:51;5.90;;;3.83;;
3099;SDS011;1560;52.746;13.474;2023-07-31T06:06:20;6.13;;;4.40;;
3099;SDS011;1560;52.746;13.474;2023-07-31T06:08:48;7.23;;;4.80;;
3099;SDS011;1560;52.746;13.474;2023-07-31T06:11:18;7.37;;;4.40;;
3099;SDS011;1560;52.746;13.474;2023-07-31T06:13:47;7.67;;;5.20;;
3099;SDS011;1560;52.746;13.474;2023-07-31T06:16:16;5.87;;;5.20;;
3099;SDS011;1560;52.746;13.474;2023-07-31T06:18:53;7.73;;;6.93;;
3099;SDS011;1560;52.746;13.474;2023-07-31T06:21:22;9.30;;;5.43;;
3099;SDS011;1560;52.746;13.474;2023-07-31T06:23:59;7.73;;;4.97;;
3099;SDS011;1560;52.746;13.474;2023-07-31T06:26:28;9.20;;;4.97;;
3099;SDS011;1560;52.746;13.474;2023-07-31T06:28:56;9.60;;;4.83;;
3099;SDS011;1560;52.746;13.474;2023-07-31T06:31:25;14.50;;;5.47;;
3099;SDS011;1560;52.746;13.474;2023-07-31T06:33:53;8.23;;;5.10;;
3099;SDS011;1560;52.746;13.474;2023-07-31T06:36:22;10.90;;;5.00;;
3099;SDS011;1560;52.746;13.474;2023-07-31T06:38:59;8.77;;;5.40;;
3099;SDS011;1560;52.746;13.474;2023-07-31T06:41:28;9.57;;;5.20;;
3099;SDS011;1560;52.746;13.474;2023-07-31T06:43:57;10.63;;;5.20;;
3099;SDS011;1560;52.746;13.474;2023-07-31T06:46:25;5.97;;;4.33;;
3099;SDS011;1560;52.746;13.474;2023-07-31T06:51:30;10.67;;;5.70;;
3099;SDS011;1560;52.746;13.474;2023-07-31T06:53:59;7.27;;;5.20;;
3099;SDS011;1560;52.746;13.474;2023-07-31T06:56:27;8.23;;;4.63;;
3099;SDS011;1560;52.746;13.474;2023-07-31T06:58:56;8.00;;;5.10;;
3099;SDS011;1560;52.746;13.474;2023-07-31T07:01:24;6.07;;;4.60;;
3099;SDS011;1560;52.746;13.474;2023-07-31T07:03:54;8.57;;;5.00;;
3099;SDS011;1560;52.746;13.474;2023-07-31T07:06:31;5.37;;;4.50;;
3099;SDS011;1560;52.746;13.474;2023-07-31T07:09:00;9.60;;;4.80;;
3099;SDS011;1560;52.746;13.474;2023-07-31T07:11:29;5.33;;;4.27;;
3099;SDS011;1560;52.746;13.474;2023-07-31T07:13:58;6.40;;;4.40;;
3099;SDS011;1560;52.746;13.474;2023-07-31T07:16:28;9.20;;;4.90;;
3099;SDS011;1560;52.746;13.474;2023-07-31T07:19:05;19.27;;;6.77;;
3099;SDS011;1560;52.746;13.474;2023-07-31T07:21:34;5.80;;;4.10;;
3099;SDS011;1560;52.746;13.474;2023-07-31T07:24:11;6.43;;;3.70;;
3099;SDS011;1560;52.746;13.474;2023-07-31T07:26:40;4.77;;;4.00;;
3099;SDS011;1560;52.746;13.474;2023-07-31T07:29:08;5.67;;;3.90;;
3099;SDS011;1560;52.746;13.474;2023-07-31T07:31:37;4.90;;;4.00;;
3099;SDS011;1560;52.746;13.474;2023-07-31T07:34:05;5.60;;;4.43;;
3099;SDS011;1560;52.746;13.474;2023-07-31T07:36:43;7.47;;;3.80;;
3099;SDS011;1560;52.746;13.474;2023-07-31T07:39:11;4.40;;;3.53;;
3099;SDS011;1560;52.746;13.474;2023-07-31T07:41:40;3.87;;;3.13;;
3099;SDS011;1560;52.746;13.474;2023-07-31T07:44:08;8.57;;;4.00;;
3099;SDS011;1560;52.746;13.474;2023-07-31T07:46:46;6.10;;;3.63;;
3099;SDS011;1560;52.746;13.474;2023-07-31T07:49:14;5.00;;;3.53;;
3099;SDS011;1560;52.746;13.474;2023-07-31T07:51:43;6.03;;;3.33;;
3099;SDS011;1560;52.746;13.474;2023-07-31T07:54:11;7.43;;;4.23;;
3099;SDS011;1560;52.746;13.474;2023-07-31T07:56:40;3.90;;;2.90;;
3099;SDS011;1560;52.746;13.474;2023-07-31T07:59:17;3.37;;;2.40;;
3099;SDS011;1560;52.746;13.474;2023-07-31T08:01:46;5.90;;;3.90;;
3099;SDS011;1560;52.746;13.474;2023-07-31T08:04:23;3.50;;;2.90;;
3099;SDS011;1560;52.746;13.474;2023-07-31T08:06:52;5.40;;;3.17;;
3099;SDS011;1560;52.746;13.474;2023-07-31T08:09:20;3.10;;;2.60;;
3099;SDS011;1560;52.746;13.474;2023-07-31T08:11:49;6.30;;;3.00;;
3099;SDS011;1560;52.746;13.474;2023-07-31T08:14:18;5.30;;;3.07;;
3099;SDS011;1560;52.746;13.474;2023-07-31T08:19:22;3.73;;;2.80;;
3099;SDS011;1560;52.746;13.474;2023-07-31T08:21:51;7.07;;;2.30;;
3099;SDS011;1560;52.746;13.474;2023-07-31T08:24:20;4.70;;;3.20;;
3099;SDS011;1560;52.746;13.474;2023-07-31T08:26:57;3.60;;;2.47;;
3099;SDS011;1560;52.746;13.474;2023-07-31T08:29:25;3.63;;;3.00;;
3099;SDS011;1560;52.746;13.474;2023-07-31T08:31:54;6.87;;;2.70;;
3099;SDS011;1560;52.746;13.474;2023-07-31T08:34:22;8.10;;;3.27;;
3099;SDS011;1560;52.746;13.474;2023-07-31T08:36:52;5.90;;;2.80;;
3099;SDS011;1560;52.746;13.474;2023-07-31T08:39:30;3.50;;;2.60;;
3099;SDS011;1560;52.746;13.474;2023-07-31T08:41:58;3.73;;;2.80;;
3099;SDS011;1560;52.746;13.474;2023-07-31T08:44:27;6.30;;;3.60;;
3099;SDS011;1560;52.746;13.474;2023-07-31T08:46:58;3.57;;;2.77;;
3099;SDS011;1560;52.746;13.474;2023-07-31T08:49:27;3.73;;;3.10;;
3099;SDS011;1560;52.746;13.474;2023-07-31T08:51:57;5.80;;;3.70;;
3099;SDS011;1560;52.746;13.474;2023-07-31T08:54:26;4.77;;;3.57;;
3099;SDS011;1560;52.746;13.474;2023-07-31T08:56:57;5.20;;;2.43;;
3099;SDS011;1560;52.746;13.474;2023-07-31T08:59:35;4.93;;;2.70;;
3099;SDS011;1560;52.746;13.474;2023-07-31T09:02:05;5.17;;;2.57;;
3099;SDS011;1560;52.746;13.474;2023-07-31T09:04:35;4.53;;;3.00;;
3099;SDS011;1560;52.746;13.474;2023-07-31T09:07:04;2.97;;;2.53;;
3099;SDS011;1560;52.746;13.474;2023-07-31T09:09:35;2.47;;;1.70;;
3099;SDS011;1560;52.746;13.474;2023-07-31T09:12:04;5.20;;;2.63;;
3099;SDS011;1560;52.746;13.474;2023-07-31T09:14:42;6.80;;;2.37;;
3099;SDS011;1560;52.746;13.474;2023-07-31T09:17:14;3.63;;;2.27;;
3099;SDS011;1560;52.746;13.474;2023-07-31T09:19:44;2.73;;;2.23;;
3099;SDS011;1560;52.746;13.474;2023-07-31T09:22:26;2.73;;;1.77;;
3099;SDS011;1560;52.746;13.474;2023-07-31T09:25:05;3.37;;;2.23;;
3099;SDS011;1560;52.746;13.474;2023-07-31T09:27:53;4.40;;;3.40;;
3099;SDS011;1560;52.746;13.474;2023-07-31T09:30:22;6.40;;;2.80;;
3099;SDS011;1560;52.746;13.474;2023-07-31T09:33:00;3.20;;;2.70;;
3099;SDS011;1560;52.746;13.474;2023-07-31T09:35:30;6.70;;;2.80;;
3099;SDS011;1560;52.746;13.474;2023-07-31T09:38:01;5.00;;;2.70;;
3099;SDS011;1560;52.746;13.474;2023-07-31T09:40:39;3.43;;;2.57;;
3099;SDS011;1560;52.746;13.474;2023-07-31T09:43:10;3.60;;;2.93;;
3099;SDS011;1560;52.746;13.474;2023-07-31T09:45:40;3.50;;;2.63;;
3099;SDS011;1560;52.746;13.474;2023-07-31T09:48:10;4.17;;;2.70;;
3099;SDS011;1560;52.746;13.474;2023-07-31T09:50:42;3.10;;;2.27;;
3099;SDS011;1560;52.746;13.474;2023-07-31T09:53:19;4.00;;;2.17;;
3099;SDS011;1560;52.746;13.474;2023-07-31T09:55:49;4.37;;;1.93;;
3099;SDS011;1560;52.746;13.474;2023-07-31T09:58:18;3.17;;;1.90;;
3099;SDS011;1560;52.746;13.474;2023-07-31T10:00:57;3.90;;;2.10;;
3099;SDS011;1560;52.746;13.474;2023-07-31T10:03:26;2.40;;;1.63;;
3099;SDS011;1560;52.746;13.474;2023-07-31T10:05:57;3.53;;;1.77;;
3099;SDS011;1560;52.746;13.474;2023-07-31T10:08:28;2.40;;;1.70;;
3099;SDS011;1560;52.746;13.474;2023-07-31T10:11:05;2.30;;;1.60;;
3099;SDS011;1560;52.746;13.474;2023-07-31T10:13:36;2.40;;;1.33;;
3099;SDS011;1560;52.746;13.474;2023-07-31T10:16:06;2.40;;;1.40;;
3099;SDS011;1560;52.746;13.474;2023-07-31T10:18:35;3.10;;;1.70;;
3099;SDS011;1560;52.746;13.474;2023-07-31T10:21:04;3.57;;;2.20;;
3099;SDS011;1560;52.746;13.474;2023-07-31T10:23:34;2.90;;;1.77;;
3099;SDS011;1560;52.746;13.474;2023-07-31T10:26:11;4.13;;;1.60;;
3099;SDS011;1560;52.746;13.474;2023-07-31T10:28:41;4.67;;;1.80;;
3099;SDS011;1560;52.746;13.474;2023-07-31T10:33:47;3.20;;;2.40;;
3099;SDS011;1560;52.746;13.474;2023-07-31T10:36:17;8.83;;;2.53;;
3099;SDS011;1560;52.746;13.474;2023-07-31T10:38:49;3.67;;;1.93;;
3099;SDS011;1560;52.746;13.474;2023-07-31T10:41:17;3.50;;;2.07;;
3099;SDS011;1560;52.746;13.474;2023-07-31T10:43:46;2.67;;;1.87;;
3099;SDS011;1560;52.746;13.474;2023-07-31T10:46:15;3.40;;;2.33;;
3099;SDS011;1560;52.746;13.474;2023-07-31T10:51:19;3.20;;;2.40;;
3099;SDS011;1560;52.746;13.474;2023-07-31T10:53:49;4.37;;;2.30;;
3099;SDS011;1560;52.746;13.474;2023-07-31T10:56:28;3.23;;;2.20;;
3099;SDS011;1560;52.746;13.474;2023-07-31T10:59:00;4.80;;;2.80;;
3099;SDS011;1560;52.746;13.474;2023-07-31T11:04:22;3.90;;;2.30;;
3099;SDS011;1560;52.746;13.474;2023-07-31T11:06:57;4.97;;;3.03;;
3099;SDS011;1560;52.746;13.474;2023-07-31T11:09:28;4.30;;;3.40;;
3099;SDS011;1560;52.746;13.474;2023-07-31T11:11:58;5.10;;;3.23;;
3099;SDS011;1560;52.746;13.474;2023-07-31T11:14:35;9.90;;;4.07;;
3099;SDS011;1560;52.746;13.474;2023-07-31T11:17:06;6.90;;;3.67;;
3099;SDS011;1560;52.746;13.474;2023-07-31T11:19:35;3.20;;;2.60;;
3099;SDS011;1560;52.746;13.474;2023-07-31T11:22:14;6.80;;;3.60;;
3099;SDS011;1560;52.746;13.474;2023-07-31T11:24:43;9.00;;;4.30;;
3099;SDS011;1560;52.746;13.474;2023-07-31T11:27:11;8.83;;;5.67;;
3099;SDS011;1560;52.746;13.474;2023-07-31T11:29:40;7.67;;;4.70;;
3099;SDS011;1560;52.746;13.474;2023-07-31T11:32:15;6.50;;;4.40;;
3099;SDS011;1560;52.746;13.474;2023-07-31T11:34:51;6.67;;;4.27;;
3099;SDS011;1560;52.746;13.474;2023-07-31T11:37:20;5.20;;;3.50;;
3099;SDS011;1560;52.746;13.474;2023-07-31T11:39:59;4.50;;;3.77;;
3099;SDS011;1560;52.746;13.474;2023-07-31T11:42:36;7.40;;;3.80;;
3099;SDS011;1560;52.746;13.474;2023-07-31T11:45:06;5.57;;;3.60;;
3099;SDS011;1560;52.746;13.474;2023-07-31T11:47:36;7.20;;;4.10;;
3099;SDS011;1560;52.746;13.474;2023-07-31T11:50:13;5.30;;;4.20;;
3099;SDS011;1560;52.746;13.474;2023-07-31T11:52:43;7.63;;;4.17;;
3099;SDS011;1560;52.746;13.474;2023-07-31T11:55:13;7.37;;;4.70;;
3099;SDS011;1560;52.746;13.474;2023-07-31T11:57:43;6.60;;;3.80;;
3099;SDS011;1560;52.746;13.474;2023-07-31T12:00:14;6.73;;;3.63;;
3099;SDS011;1560;52.746;13.474;2023-07-31T12:02:51;5.13;;;3.53;;
3099;SDS011;1560;52.746;13.474;2023-07-31T12:05:22;12.70;;;4.50;;
3099;SDS011;1560;52.746;13.474;2023-07-31T12:07:51;10.43;;;4.47;;
3099;SDS011;1560;52.746;13.474;2023-07-31T12:10:29;7.43;;;4.67;;
3099;SDS011;1560;52.746;13.474;2023-07-31T12:13:00;8.73;;;5.03;;
3099;SDS011;1560;52.746;13.474;2023-07-31T12:15:35;8.23;;;4.10;;
3099;SDS011;1560;52.746;13.474;2023-07-31T12:18:08;5.97;;;4.07;;
3099;SDS011;1560;52.746;13.474;2023-07-31T12:20:46;8.40;;;3.97;;
3099;SDS011;1560;52.746;13.474;2023-07-31T12:23:17;6.00;;;4.00;;
3099;SDS011;1560;52.746;13.474;2023-07-31T12:25:54;5.53;;;3.50;;
3099;SDS011;1560;52.746;13.474;2023-07-31T12:28:22;7.60;;;4.70;;
3099;SDS011;1560;52.746;13.474;2023-07-31T12:31:00;8.13;;;4.40;;
3099;SDS011;1560;52.746;13.474;2023-07-31T12:33:30;5.37;;;3.33;;
3099;SDS011;1560;52.746;13.474;2023-07-31T12:36:00;9.93;;;5.17;;
3099;SDS011;1560;52.746;13.474;2023-07-31T12:38:30;9.00;;;4.20;;
3099;SDS011;1560;52.746;13.474;2023-07-31T12:40:58;4.33;;;3.70;;
3099;SDS011;1560;52.746;13.474;2023-07-31T12:43:27;6.33;;;3.50;;
3099;SDS011;1560;52.746;13.474;2023-07-31T12:45:56;6.43;;;3.73;;
3099;SDS011;1560;52.746;13.474;2023-07-31T12:48:33;6.20;;;3.77;;
3099;SDS011;1560;52.746;13.474;2023-07-31T12:51:02;10.87;;;3.53;;
3099;SDS011;1560;52.746;13.474;2023-07-31T12:53:33;8.23;;;3.90;;
3099;SDS011;1560;52.746;13.474;2023-07-31T12:56:01;5.57;;;3.73;;
3099;SDS011;1560;52.746;13.474;2023-07-31T12:58:39;5.60;;;3.33;;
3099;SDS011;1560;52.746;13.474;2023-07-31T13:01:07;8.53;;;3.83;;
3099;SDS011;1560;52.746;13.474;2023-07-31T13:03:36;6.93;;;4.30;;
3099;SDS011;1560;52.746;13.474;2023-07-31T13:06:05;6.97;;;4.17;;
3099;SDS011;1560;52.746;13.474;2023-07-31T13:08:33;7.33;;;4.87;;
3099;SDS011;1560;52.746;13.474;2023-07-31T13:11:02;4.73;;;3.43;;
3099;SDS011;1560;52.746;13.474;2023-07-31T13:13:39;5.43;;;3.47;;
3099;SDS011;1560;52.746;13.474;2023-07-31T13:16:07;8.93;;;4.13;;
3099;SDS011;1560;52.746;13.474;2023-07-31T13:18:36;10.00;;;3.50;;
3099;SDS011;1560;52.746;13.474;2023-07-31T13:21:05;6.90;;;3.33;;
3099;SDS011;1560;52.746;13.474;2023-07-31T13:23:42;6.93;;;4.27;;
3099;SDS011;1560;52.746;13.474;2023-07-31T13:26:10;10.17;;;4.67;;
3099;SDS011;1560;52.746;13.474;2023-07-31T13:28:39;7.90;;;4.20;;
3099;SDS011;1560;52.746;13.474;2023-07-31T13:31:07;7.60;;;5.27;;
3099;SDS011;1560;52.746;13.474;2023-07-31T13:33:45;5.53;;;3.80;;
3099;SDS011;1560;52.746;13.474;2023-07-31T13:36:13;5.70;;;3.67;;
3099;SDS011;1560;52.746;13.474;2023-07-31T13:38:42;7.50;;;3.80;;
3099;SDS011;1560;52.746;13.474;2023-07-31T13:41:11;8.43;;;4.10;;
3099;SDS011;1560;52.746;13.474;2023-07-31T13:43:39;5.33;;;4.00;;
3099;SDS011;1560;52.746;13.474;2023-07-31T13:46:08;4.57;;;3.30;;
3099;SDS011;1560;52.746;13.474;2023-07-31T13:48:45;8.20;;;3.43;;
3099;SDS011;1560;52.746;13.474;2023-07-31T13:51:13;4.30;;;2.90;;
3099;SDS011;1560;52.746;13.474;2023-07-31T13:53:42;6.10;;;3.40;;
3099;SDS011;1560;52.746;13.474;2023-07-31T13:56:19;5.03;;;3.30;;
3099;SDS011;1560;52.746;13.474;2023-07-31T13:58:48;3.83;;;2.90;;
3099;SDS011;1560;52.746;13.474;2023-07-31T14:01:17;4.97;;;2.80;;
3099;SDS011;1560;52.746;13.474;2023-07-31T14:03:54;8.47;;;3.80;;
3099;SDS011;1560;52.746;13.474;2023-07-31T14:06:23;7.53;;;3.20;;
3099;SDS011;1560;52.746;13.474;2023-07-31T14:08:51;3.60;;;2.97;;
3099;SDS011;1560;52.746;13.474;2023-07-31T14:11:28;5.63;;;3.07;;
3099;SDS011;1560;52.746;13.474;2023-07-31T14:13:57;4.73;;;3.57;;
3099;SDS011;1560;52.746;13.474;2023-07-31T14:16:27;5.40;;;3.37;;
3099;SDS011;1560;52.746;13.474;2023-07-31T14:18:56;3.30;;;2.87;;
3099;SDS011;1560;52.746;13.474;2023-07-31T14:21:25;5.67;;;2.70;;
3099;SDS011;1560;52.746;13.474;2023-07-31T14:23:54;3.80;;;3.20;;
3099;SDS011;1560;52.746;13.474;2023-07-31T14:26:22;5.57;;;2.93;;
3099;SDS011;1560;52.746;13.474;2023-07-31T14:28:51;4.67;;;2.80;;
3099;SDS011;1560;52.746;13.474;2023-07-31T14:31:28;5.03;;;3.10;;
3099;SDS011;1560;52.746;13.474;2023-07-31T14:33:57;3.90;;;3.10;;
3099;SDS011;1560;52.746;13.474;2023-07-31T14:36:26;5.10;;;3.40;;
3099;SDS011;1560;52.746;13.474;2023-07-31T14:38:54;5.43;;;2.83;;
3099;SDS011;1560;52.746;13.474;2023-07-31T14:41:31;5.43;;;3.77;;
3099;SDS011;1560;52.746;13.474;2023-07-31T14:44:00;6.47;;;3.37;;
3099;SDS011;1560;52.746;13.474;2023-07-31T14:46:28;5.40;;;3.37;;
3099;SDS011;1560;52.746;13.474;2023-07-31T14:48:57;6.73;;;2.80;;
3099;SDS011;1560;52.746;13.474;2023-07-31T14:51:26;4.90;;;3.00;;
3099;SDS011;1560;52.746;13.474;2023-07-31T14:53:54;9.13;;;3.30;;
3099;SDS011;1560;52.746;13.474;2023-07-31T14:56:23;5.33;;;2.80;;
3099;SDS011;1560;52.746;13.474;2023-07-31T14:59:00;5.63;;;3.30;;
3099;SDS011;1560;52.746;13.474;2023-07-31T15:01:29;4.03;;;2.67;;
3099;SDS011;1560;52.746;13.474;2023-07-31T15:03:58;5.20;;;3.80;;
3099;SDS011;1560;52.746;13.474;2023-07-31T15:06:26;4.93;;;3.10;;
3099;SDS011;1560;52.746;13.474;2023-07-31T15:08:55;4.37;;;3.50;;
3099;SDS011;1560;52.746;13.474;2023-07-31T15:11:24;8.57;;;3.97;;
3099;SDS011;1560;52.746;13.474;2023-07-31T15:14:02;5.60;;;3.50;;
3099;SDS011;1560;52.746;13.474;2023-07-31T15:16:30;5.40;;;3.57;;
3099;SDS011;1560;52.746;13.474;2023-07-31T15:18:59;6.13;;;3.63;;
3099;SDS011;1560;52.746;13.474;2023-07-31T15:21:28;5.63;;;3.10;;
3099;SDS011;1560;52.746;13.474;2023-07-31T15:24:05;6.20;;;4.20;;
3099;SDS011;1560;52.746;13.474;2023-07-31T15:26:34;5.53;;;3.27;;
3099;SDS011;1560;52.746;13.474;2023-07-31T15:29:04;5.83;;;4.00;;
3099;SDS011;1560;52.746;13.474;2023-07-31T15:31:37;5.60;;;3.97;;
3099;SDS011;1560;52.746;13.474;2023-07-31T15:34:06;5.07;;;3.63;;
3099;SDS011;1560;52.746;13.474;2023-07-31T15:36:43;5.70;;;3.33;;
3099;SDS011;1560;52.746;13.474;2023-07-31T15:39:12;5.43;;;3.33;;
3099;SDS011;1560;52.746;13.474;2023-07-31T15:41:41;4.43;;;3.10;;
3099;SDS011;1560;52.746;13.474;2023-07-31T15:44:10;5.80;;;4.10;;
3099;SDS011;1560;52.746;13.474;2023-07-31T15:46:38;5.63;;;3.30;;
3099;SDS011;1560;52.746;13.474;2023-07-31T15:49:07;4.93;;;3.33;;